Gunnison, CO

8:30 PM MST on December 17, 2014 (GMT -0700)
Taylor St. | Change Station
CLOSE
Current Station
Personal Weather Station
Location: Gunnison, CO
Elevation: 7687 ft
Nearby Weather Stations

Elev 7687 ft 38.54 °N, 106.92 °W | Updated 3 minutes ago

Mostly Cloudy
Mostly Cloudy
23.4 °F
Feels Like 17 °F
N
5.3
Wind Variable Wind from East

Today
High -- | Low -- °F
--% Chance of Precip.
Yesterday
High -- | Low -- °F
Precip. -- in
7:19 AM 4:48 PM
Waning Crescent, 17% visible
Pressure 30.02 in
Visibility 4.0 miles
Clouds Scattered Clouds 2600 ft
Mostly Cloudy 3400 ft
Windchill 17 °F
Dew Point 23 °F
Humidity 98%
Rainfall 0.02 in
Snow Depth Not available.
UV 0 out of 12
Pollen .10 out of 12
Air Quality Not available.
Flu Activity Not available.
METAR KGUC 180315Z AUTO 04003KT 4SM SCT026 BKN034 M04/M07 A3002 RMK AO1

More Conditions Fewer Conditions

Pressure 30.02 in
Visibility 4.0 miles
Clouds Scattered Clouds 2600 ft
Mostly Cloudy 3400 ft
Windchill 17 °F
Dew Point 23 °F
Humidity 98%
Rainfall 0.02 in
Snow Depth Not available.
UV 0 out of 12
Pollen .10 out of 12
Air Quality Not available.
Flu Activity Not available.
METAR KGUC 180315Z AUTO 04003KT 4SM SCT026 BKN034 M04/M07 A3002 RMK AO1

More Conditions Fewer Conditions

10-Day Weather Forecast

Almanac

Astronomy

Dec. 17, 2014 Rise Set
Actual Time
Civil Twilight
Nautical Twilight
Astronomical Twilight
Moon
Length of Visible Light
Length of Day
Tomorrow will be .
, % of the Moon is Illuminated

Today's Extremes

State Highs State Lows

Community

WunderPhotos

Upload Photos

1,778,877 photos uploaded!

WunderBlogs® & News

Nearby

Air Quality

  Air Quality AQ Index Pollutant
Not available.

Snow Depth

Station Depth Elevation

Earthquake Activity

City Distance Mag. Time & Date
Minimum magnitude displayed is 2.5.

Coastal Water Temperatures

Place Temperature

Nearby Weather Stations